createdAt,value
2018-03-14T00:01:50.900Z,38.83
2018-03-14T00:04:20.052Z,40.20
2018-03-14T00:06:49.078Z,35.90
2018-03-14T00:09:17.969Z,32.03
2018-03-14T00:11:45.477Z,35.97
2018-03-14T00:14:14.422Z,38.60
2018-03-14T00:16:42.693Z,34.40
2018-03-14T00:19:10.318Z,41.90
2018-03-14T00:21:37.871Z,32.70
2018-03-14T00:24:05.486Z,31.60
2018-03-14T00:26:33.027Z,27.83
2018-03-14T00:29:00.580Z,26.57
2018-03-14T00:31:28.549Z,42.10
2018-03-14T00:33:56.155Z,26.90
2018-03-14T00:36:24.093Z,29.40
2018-03-14T00:38:51.682Z,29.53
2018-03-14T00:41:19.626Z,36.53
2018-03-14T00:43:47.560Z,33.13
2018-03-14T00:46:15.178Z,43.80
2018-03-14T00:48:42.723Z,35.37
2018-03-14T00:51:10.348Z,38.03
2018-03-14T00:53:37.908Z,32.30
2018-03-14T00:56:06.644Z,29.53
2018-03-14T00:58:34.993Z,37.67
2018-03-14T01:01:02.605Z,46.47
2018-03-14T01:03:30.997Z,36.80
2018-03-14T01:05:58.570Z,30.67
2018-03-14T01:08:27.248Z,33.23
2018-03-14T01:10:55.658Z,36.10
2018-03-14T01:13:23.614Z,31.57
2018-03-14T01:15:51.146Z,31.10
2018-03-14T01:18:19.518Z,28.67
2018-03-14T01:20:47.916Z,34.67
2018-03-14T01:23:16.246Z,28.23
2018-03-14T01:25:45.225Z,28.80
2018-03-14T01:28:12.872Z,26.23
2018-03-14T01:30:42.015Z,35.60
2018-03-14T01:33:10.936Z,25.90
2018-03-14T01:35:38.537Z,26.03
2018-03-14T01:38:06.505Z,24.97
2018-03-14T01:40:34.059Z,23.20
2018-03-14T01:43:01.991Z,24.07
2018-03-14T01:45:29.510Z,26.33
2018-03-14T01:47:57.070Z,24.97
2018-03-14T01:50:24.620Z,21.70
2018-03-14T01:52:52.168Z,23.53
2018-03-14T01:55:21.108Z,21.43
2018-03-14T01:57:49.865Z,29.57
2018-03-14T02:00:18.238Z,19.00
2018-03-14T02:02:46.291Z,21.63
2018-03-14T02:05:14.368Z,15.57
2018-03-14T02:07:43.348Z,22.30
2018-03-14T02:10:10.985Z,22.73
2018-03-14T02:12:39.284Z,20.07
2018-03-14T02:15:07.581Z,21.77
2018-03-14T02:17:35.568Z,20.07
2018-03-14T02:20:04.393Z,19.00
2018-03-14T02:22:32.754Z,21.10
2018-03-14T02:25:00.223Z,21.57
2018-03-14T02:27:28.684Z,19.67
2018-03-14T02:29:56.123Z,19.70
2018-03-14T02:32:23.589Z,20.20
2018-03-14T02:34:51.792Z,16.60
2018-03-14T02:37:19.324Z,18.80
2018-03-14T02:39:47.939Z,19.17
2018-03-14T02:42:15.478Z,21.50
2018-03-14T02:44:43.335Z,26.20
2018-03-14T02:47:11.568Z,24.80
2018-03-14T02:49:39.024Z,20.83
2018-03-14T02:52:06.463Z,21.80
2018-03-14T02:54:35.259Z,27.33
2018-03-14T02:57:03.475Z,20.63
2018-03-14T02:59:31.337Z,29.13
2018-03-14T03:01:59.906Z,25.10
2018-03-14T03:04:27.362Z,18.80
2018-03-14T03:06:54.812Z,26.70
2018-03-14T03:09:22.290Z,25.83
2018-03-14T03:11:50.145Z,23.73
2018-03-14T03:14:17.605Z,22.40
2018-03-14T03:16:45.035Z,24.97
2018-03-14T03:19:13.239Z,25.13
2018-03-14T03:21:41.075Z,34.03
2018-03-14T03:24:10.028Z,22.50
2018-03-14T03:26:37.854Z,27.17
2018-03-14T03:29:05.299Z,33.60
2018-03-14T03:31:33.528Z,23.50
2018-03-14T03:34:01.738Z,26.23
2018-03-14T03:36:29.188Z,27.47
2018-03-14T03:38:58.154Z,24.27
2018-03-14T03:41:26.358Z,31.77
2018-03-14T03:43:53.804Z,32.93
2018-03-14T03:46:21.244Z,31.57
2018-03-14T03:48:48.703Z,29.00
2018-03-14T03:51:16.550Z,28.17
2018-03-14T03:53:44.793Z,30.63
2018-03-14T03:56:12.244Z,35.50
2018-03-14T03:58:39.702Z,30.27
2018-03-14T04:01:07.572Z,31.73
2018-03-14T04:03:35.415Z,45.23
2018-03-14T04:06:02.867Z,42.07
2018-03-14T04:08:30.334Z,44.67
2018-03-14T04:10:58.178Z,47.33
2018-03-14T04:13:25.646Z,55.67
2018-03-14T04:15:53.091Z,51.73
2018-03-14T04:18:20.549Z,62.43
2018-03-14T04:20:48.758Z,57.70
2018-03-14T04:23:16.197Z,64.23
2018-03-14T04:25:44.436Z,55.10
2018-03-14T04:28:11.862Z,106.03
2018-03-14T04:30:39.302Z,75.40
2018-03-14T04:33:06.752Z,83.03
2018-03-14T04:35:34.219Z,76.30
2018-03-14T04:38:01.675Z,96.40
2018-03-14T04:40:29.124Z,111.33
2018-03-14T04:42:56.563Z,105.33
2018-03-14T04:45:24.804Z,133.07
2018-03-14T04:47:52.256Z,108.70
2018-03-14T04:50:21.233Z,99.33
2018-03-14T04:52:49.463Z,79.83
2018-03-14T04:55:16.931Z,82.30
2018-03-14T04:57:44.376Z,78.27
2018-03-14T05:00:11.841Z,77.60
2018-03-14T05:02:39.303Z,74.00
2018-03-14T05:05:06.779Z,83.13
2018-03-14T05:07:34.231Z,74.77
2018-03-14T05:10:01.722Z,94.33
2018-03-14T05:12:29.925Z,86.53
2018-03-14T05:14:57.370Z,78.53
2018-03-14T05:17:25.829Z,78.77
2018-03-14T05:19:54.803Z,71.70
2018-03-14T05:22:22.644Z,68.13
2018-03-14T05:24:50.099Z,55.10
2018-03-14T05:27:18.389Z,56.27
2018-03-14T05:29:46.591Z,55.93
2018-03-14T05:32:15.406Z,52.43
2018-03-14T05:34:42.863Z,57.27
2018-03-14T05:37:10.332Z,51.47
2018-03-14T05:39:37.788Z,53.07
2018-03-14T05:42:05.230Z,58.53
2018-03-14T05:44:33.816Z,55.30
2018-03-14T05:47:02.040Z,65.90
2018-03-14T05:49:30.725Z,65.33
2018-03-14T05:51:58.602Z,66.17
2018-03-14T05:54:26.055Z,69.63
2018-03-14T05:56:54.875Z,67.47
2018-03-14T05:59:23.455Z,74.00
2018-03-14T06:01:51.670Z,67.10
2018-03-14T06:04:19.900Z,75.20
2018-03-14T06:06:47.345Z,67.73
2018-03-14T06:09:14.807Z,75.10
2018-03-14T06:11:42.262Z,78.97
2018-03-14T06:14:09.710Z,81.70
2018-03-14T06:16:37.950Z,74.60
2018-03-14T06:19:05.790Z,69.83
2018-03-14T06:21:33.250Z,71.37
2018-03-14T06:24:00.685Z,72.10
2018-03-14T06:26:29.263Z,76.60
2018-03-14T06:28:56.702Z,69.80
2018-03-14T06:31:24.162Z,83.60
2018-03-14T06:33:52.369Z,104.20
2018-03-14T06:36:21.325Z,97.37
2018-03-14T06:38:48.767Z,93.57
2018-03-14T06:41:16.966Z,92.90
2018-03-14T06:43:45.166Z,89.90
2018-03-14T06:46:13.014Z,95.40
2018-03-14T06:48:41.227Z,98.43
2018-03-14T06:51:08.669Z,89.13
2018-03-14T06:53:36.894Z,90.43
2018-03-14T06:56:04.402Z,93.57
2018-03-14T06:58:43.582Z,81.30
2018-03-14T07:04:52.600Z,82.90
2018-03-14T07:07:20.018Z,85.87
2018-03-14T07:09:48.610Z,77.30
2018-03-14T07:12:17.191Z,75.80
2018-03-14T07:14:45.439Z,71.03
2018-03-14T07:17:12.987Z,77.77
2018-03-14T07:19:40.444Z,74.43
2018-03-14T07:22:07.900Z,72.63
2018-03-14T07:24:36.134Z,74.90
2018-03-14T07:27:03.590Z,68.67
2018-03-14T07:29:31.799Z,62.03
2018-03-14T07:31:59.285Z,58.27
2018-03-14T07:34:26.758Z,68.13
2018-03-14T07:36:54.194Z,64.80
2018-03-14T07:39:22.059Z,69.03
2018-03-14T07:41:49.518Z,67.20
2018-03-14T07:44:16.970Z,64.50
2018-03-14T07:46:44.442Z,73.73
2018-03-14T07:49:11.886Z,64.83
2018-03-14T07:51:40.122Z,74.87
2018-03-14T07:54:07.560Z,60.47
2018-03-14T07:56:35.002Z,70.10
2018-03-14T07:59:03.205Z,61.10
2018-03-14T08:01:31.414Z,58.53
2018-03-14T08:03:58.861Z,59.33
2018-03-14T08:06:26.306Z,66.33
2018-03-14T08:08:54.539Z,57.50
2018-03-14T08:11:21.976Z,63.90
2018-03-14T08:13:50.373Z,52.07
2018-03-14T08:16:17.641Z,43.47
2018-03-14T08:18:45.305Z,40.87
2018-03-14T08:21:13.522Z,49.47
2018-03-14T08:23:40.978Z,40.57
2018-03-14T08:26:08.427Z,41.27
2018-03-14T08:28:37.406Z,45.37
2018-03-14T08:31:04.898Z,37.80
2018-03-14T08:33:32.364Z,39.67
2018-03-14T08:36:00.579Z,38.07
2018-03-14T08:38:29.162Z,41.93
2018-03-14T08:40:56.723Z,44.97
2018-03-14T08:43:24.558Z,43.03
2018-03-14T08:45:52.408Z,37.63
2018-03-14T08:48:19.859Z,42.20
2018-03-14T08:50:47.689Z,38.70
2018-03-14T08:53:15.385Z,33.17
2018-03-14T08:55:42.836Z,29.23
2018-03-14T08:58:11.031Z,27.60
2018-03-14T09:00:39.244Z,27.97
2018-03-14T09:03:06.782Z,25.47
2018-03-14T09:05:35.053Z,22.13
2018-03-14T09:08:02.947Z,20.23
2018-03-14T09:10:30.386Z,15.07
2018-03-14T09:12:57.826Z,17.30
2018-03-14T09:15:25.485Z,21.83
2018-03-14T09:17:53.031Z,18.63
2018-03-14T09:20:20.874Z,20.63
2018-03-14T09:22:48.314Z,13.97
2018-03-14T09:25:15.937Z,18.03
2018-03-14T09:27:44.219Z,23.37
2018-03-14T09:30:12.431Z,24.40
2018-03-14T09:32:39.889Z,23.50
2018-03-14T09:35:07.746Z,20.70
2018-03-14T09:37:36.259Z,20.77
2018-03-14T09:40:04.471Z,21.27
2018-03-14T09:42:31.950Z,22.20
2018-03-14T09:44:59.451Z,24.77
2018-03-14T09:47:26.959Z,23.47
2018-03-14T09:49:55.236Z,22.93
2018-03-14T09:52:22.711Z,23.93
2018-03-14T09:54:50.944Z,24.57
2018-03-14T09:57:18.652Z,27.80
2018-03-14T09:59:46.247Z,26.20
2018-03-14T10:02:13.682Z,25.03
2018-03-14T10:04:42.036Z,26.00
2018-03-14T10:07:09.511Z,22.80
2018-03-14T10:09:37.207Z,20.47
2018-03-14T10:12:05.651Z,27.00
2018-03-14T10:14:33.100Z,23.90
2018-03-14T10:17:01.345Z,25.07
2018-03-14T10:19:29.587Z,24.17
2018-03-14T10:21:57.201Z,21.10
2018-03-14T10:24:24.686Z,21.30
2018-03-14T10:26:52.992Z,26.27
2018-03-14T10:29:21.249Z,20.60
2018-03-14T10:31:48.713Z,15.80
2018-03-14T10:34:16.654Z,16.40
2018-03-14T10:36:44.196Z,18.60
2018-03-14T10:39:12.121Z,21.70
2018-03-14T10:41:40.392Z,14.50
2018-03-14T10:44:07.838Z,16.30
2018-03-14T10:46:36.247Z,17.73
2018-03-14T10:49:03.698Z,14.50
2018-03-14T10:51:31.142Z,17.30
2018-03-14T10:53:58.587Z,16.07
2018-03-14T10:56:26.375Z,16.80
2018-03-14T10:58:54.663Z,16.93
2018-03-14T11:01:22.507Z,19.20
2018-03-14T11:03:49.971Z,18.33
2018-03-14T11:06:17.694Z,14.27
2018-03-14T11:08:46.174Z,17.03
2018-03-14T11:11:15.059Z,16.37
2018-03-14T11:13:42.516Z,17.90
2018-03-14T11:16:10.370Z,16.97
2018-03-14T11:18:38.198Z,16.10
2018-03-14T11:21:05.835Z,12.10
2018-03-14T11:23:33.272Z,14.27
2018-03-14T11:26:00.732Z,12.13
2018-03-14T11:28:28.937Z,15.00
2018-03-14T11:30:56.612Z,17.90
2018-03-14T11:33:25.039Z,16.70
2018-03-14T11:35:52.515Z,11.63
2018-03-14T11:38:19.952Z,14.87
2018-03-14T11:40:47.551Z,13.63
2018-03-14T11:43:15.298Z,13.63
2018-03-14T11:45:42.838Z,14.60
2018-03-14T11:48:10.696Z,10.20
2018-03-14T11:50:38.592Z,6.70
2018-03-14T11:53:06.513Z,8.23
2018-03-14T11:55:34.095Z,7.53
2018-03-14T11:58:02.302Z,8.37
2018-03-14T12:00:29.759Z,10.37
2018-03-14T12:02:57.282Z,7.80
2018-03-14T12:05:25.557Z,9.60
2018-03-14T12:07:53.799Z,8.87
2018-03-14T12:10:22.767Z,9.87
2018-03-14T12:12:50.215Z,10.33
2018-03-14T12:15:18.459Z,7.73
2018-03-14T12:17:46.025Z,7.60
2018-03-14T12:20:13.443Z,9.10
2018-03-14T12:22:41.274Z,19.73
2018-03-14T12:25:09.560Z,8.67
2018-03-14T12:27:37.484Z,11.00
2018-03-14T12:30:04.928Z,11.60
2018-03-14T12:32:32.767Z,9.17
2018-03-14T12:35:00.308Z,9.93
2018-03-14T12:37:27.788Z,11.20
2018-03-14T12:39:55.240Z,13.70
2018-03-14T12:42:22.702Z,9.67
2018-03-14T12:44:50.543Z,7.53
2018-03-14T12:47:17.983Z,8.57
2018-03-14T12:49:45.418Z,9.10
2018-03-14T12:52:12.912Z,10.50
2018-03-14T12:54:40.367Z,9.37
2018-03-14T12:57:11.821Z,11.10
2018-03-14T13:02:15.065Z,12.43
2018-03-14T13:04:44.283Z,9.50
2018-03-14T13:07:12.123Z,10.20
2018-03-14T13:09:39.951Z,8.20
2018-03-14T13:12:07.416Z,11.10
2018-03-14T13:14:35.284Z,9.33
2018-03-14T13:17:02.729Z,8.70
2018-03-14T13:19:30.598Z,13.40
2018-03-14T13:21:58.448Z,11.43
2018-03-14T13:24:26.764Z,9.03
2018-03-14T13:26:54.698Z,10.10
2018-03-14T13:29:25.525Z,8.70
2018-03-14T13:31:53.103Z,12.20
2018-03-14T13:34:21.709Z,9.07
2018-03-14T13:36:49.927Z,12.17
2018-03-14T13:39:17.423Z,14.03
2018-03-14T13:41:45.645Z,13.40
2018-03-14T13:44:13.088Z,7.67
2018-03-14T13:46:40.872Z,8.90
2018-03-14T13:49:08.343Z,9.63
2018-03-14T13:51:35.839Z,9.20
2018-03-14T13:54:04.115Z,9.00
2018-03-14T13:56:31.579Z,13.90
2018-03-14T13:59:07.535Z,14.97
2018-03-14T14:01:35.592Z,10.33
2018-03-14T14:04:03.048Z,11.30
2018-03-14T14:06:30.903Z,12.37
2018-03-14T14:08:59.135Z,11.93
2018-03-14T14:11:28.832Z,8.60
2018-03-14T14:13:56.816Z,10.97
2018-03-14T14:16:25.048Z,10.50
2018-03-14T14:18:52.495Z,9.10
2018-03-14T14:21:20.737Z,12.40
2018-03-14T14:23:48.620Z,10.00
2018-03-14T14:26:18.371Z,9.77
2018-03-14T14:28:45.834Z,11.17
2018-03-14T14:31:13.333Z,9.80
2018-03-14T14:33:40.808Z,11.80
2018-03-14T14:36:10.537Z,13.03
2018-03-14T14:38:37.988Z,11.20
2018-03-14T14:41:06.186Z,8.80
2018-03-14T14:43:47.596Z,11.53
2018-03-14T14:46:15.452Z,10.40
2018-03-14T14:48:42.904Z,11.30
2018-03-14T14:51:10.371Z,10.83
2018-03-14T14:53:37.830Z,10.50
2018-03-14T14:56:05.679Z,9.87
2018-03-14T14:58:35.632Z,9.83
2018-03-14T15:01:12.611Z,6.40
2018-03-14T15:03:40.455Z,7.13
2018-03-14T15:06:08.654Z,8.93
2018-03-14T15:08:36.917Z,9.43
2018-03-14T15:11:04.389Z,10.73
2018-03-14T15:13:32.604Z,6.20
2018-03-14T15:16:03.890Z,7.47
2018-03-14T15:18:31.427Z,5.67
2018-03-14T15:20:59.641Z,7.67
2018-03-14T15:23:27.479Z,7.73
2018-03-14T15:25:54.945Z,5.00
2018-03-14T15:28:22.403Z,10.13
2018-03-14T15:30:50.755Z,10.60
2018-03-14T15:33:21.224Z,5.93
2018-03-14T15:35:48.755Z,6.57
2018-03-14T15:38:16.348Z,9.43
2018-03-14T15:40:43.781Z,5.93
2018-03-14T15:43:11.251Z,15.33
2018-03-14T15:45:38.695Z,3.80
2018-03-14T15:48:06.651Z,5.27
2018-03-14T15:50:34.512Z,9.40
2018-03-14T15:53:03.095Z,4.50
2018-03-14T15:55:30.668Z,4.83
2018-03-14T15:57:59.164Z,5.10
2018-03-14T16:00:28.156Z,4.67
2018-03-14T16:03:11.197Z,4.30
2018-03-14T16:05:40.922Z,3.87
2018-03-14T16:08:18.984Z,6.40
2018-03-14T16:10:46.823Z,5.57
2018-03-14T16:13:19.896Z,6.50
2018-03-14T16:15:47.364Z,11.53
2018-03-14T16:18:15.629Z,5.43
2018-03-14T16:20:43.131Z,8.00
2018-03-14T16:23:10.584Z,8.77
2018-03-14T16:25:38.418Z,3.83
2018-03-14T16:28:05.862Z,4.37
2018-03-14T16:30:33.289Z,4.00
2018-03-14T16:33:00.747Z,3.73
2018-03-14T16:35:28.196Z,4.80
2018-03-14T16:37:55.641Z,4.10
2018-03-14T16:40:23.466Z,3.33
2018-03-14T16:42:51.321Z,4.03
2018-03-14T16:45:19.152Z,3.37
2018-03-14T16:47:47.358Z,4.00
2018-03-14T16:50:16.098Z,3.80
2018-03-14T16:52:43.489Z,3.80
2018-03-14T16:55:11.034Z,4.60
2018-03-14T16:57:38.509Z,3.53
2018-03-14T17:00:07.322Z,5.10
2018-03-14T17:02:34.775Z,3.73
2018-03-14T17:05:02.224Z,3.77
2018-03-14T17:07:30.461Z,8.00
2018-03-14T17:09:58.295Z,3.80
2018-03-14T17:12:25.724Z,5.43
2018-03-14T17:14:53.564Z,6.93
2018-03-14T17:17:21.413Z,5.47
2018-03-14T17:19:54.184Z,5.13
2018-03-14T17:22:23.138Z,4.60
2018-03-14T17:24:50.995Z,3.37
2018-03-14T17:27:18.888Z,4.40
2018-03-14T17:29:46.689Z,3.23
2018-03-14T17:32:15.296Z,3.50
2018-03-14T17:34:42.720Z,4.67
2018-03-14T17:37:10.175Z,15.00
2018-03-14T17:39:37.639Z,3.53
2018-03-14T17:42:06.418Z,6.60
2018-03-14T17:44:33.863Z,3.60
2018-03-14T17:47:02.110Z,15.50
2018-03-14T17:49:29.581Z,12.10
2018-03-14T17:51:57.045Z,4.50
2018-03-14T17:54:25.620Z,9.77
2018-03-14T17:56:54.423Z,9.93
2018-03-14T17:59:22.271Z,7.90
2018-03-14T18:01:49.734Z,5.13
2018-03-14T18:04:18.534Z,7.57
2018-03-14T18:06:45.988Z,4.37
2018-03-14T18:09:13.840Z,12.33
2018-03-14T18:11:42.116Z,13.03
2018-03-14T18:14:10.323Z,5.17
2018-03-14T18:16:37.776Z,7.53
2018-03-14T18:21:39.045Z,5.07
2018-03-14T18:24:06.489Z,4.47
2018-03-14T18:26:33.938Z,8.13
2018-03-14T18:29:04.036Z,18.83
2018-03-14T18:31:31.479Z,11.80
2018-03-14T18:33:58.918Z,8.03
2018-03-14T18:36:27.140Z,17.03
2018-03-14T18:38:58.107Z,7.60
2018-03-14T18:41:25.579Z,9.80
2018-03-14T18:43:54.367Z,9.90
2018-03-14T18:46:22.944Z,9.47
2018-03-14T18:48:50.786Z,15.73
2018-03-14T18:51:19.664Z,12.60
2018-03-14T18:53:47.086Z,5.53
2018-03-14T18:56:14.947Z,7.83
2018-03-14T18:58:42.413Z,8.97
2018-03-14T19:01:24.187Z,13.60
2018-03-14T19:03:52.051Z,8.53
2018-03-14T19:06:19.655Z,16.77
2018-03-14T19:08:48.619Z,8.20
2018-03-14T19:11:16.096Z,16.63
2018-03-14T19:13:44.656Z,8.33
2018-03-14T19:16:13.680Z,8.00
2018-03-14T19:18:41.131Z,17.33
2018-03-14T19:21:08.986Z,12.00
2018-03-14T19:23:37.205Z,14.03
2018-03-14T19:26:05.425Z,11.63
2018-03-14T19:28:33.099Z,14.17
2018-03-14T19:31:00.625Z,8.63
2018-03-14T19:33:28.877Z,8.77
2018-03-14T19:35:56.724Z,10.50
2018-03-14T19:38:24.952Z,6.43
2018-03-14T19:40:52.502Z,9.70
2018-03-14T19:43:21.456Z,8.27
2018-03-14T19:45:48.908Z,8.77
2018-03-14T19:48:16.369Z,8.90
2018-03-14T19:50:44.237Z,14.03
2018-03-14T19:53:13.076Z,12.10
2018-03-14T19:55:40.528Z,10.97
2018-03-14T19:58:08.850Z,16.90
2018-03-14T20:00:49.834Z,7.90
2018-03-14T20:03:18.046Z,16.13
2018-03-14T20:05:46.732Z,11.90
2018-03-14T20:08:14.183Z,8.67
2018-03-14T20:10:49.007Z,9.70
2018-03-14T20:13:17.819Z,8.50
2018-03-14T20:15:46.233Z,10.07
2018-03-14T20:18:13.702Z,12.57
2018-03-14T20:20:41.964Z,22.90
2018-03-14T20:23:10.915Z,17.63
2018-03-14T20:25:39.152Z,12.47
2018-03-14T20:28:06.643Z,13.90
2018-03-14T20:30:37.013Z,11.10
2018-03-14T20:33:05.473Z,18.03
2018-03-14T20:35:34.317Z,19.40
2018-03-14T20:38:02.304Z,15.90
2018-03-14T20:43:23.551Z,18.53
2018-03-14T20:48:24.300Z,20.00
2018-03-14T20:50:51.768Z,26.50
2018-03-14T20:53:20.643Z,24.97
2018-03-14T20:55:48.126Z,19.67
2018-03-14T20:58:15.563Z,23.03
2018-03-14T21:00:43.416Z,21.17
2018-03-14T21:03:10.883Z,21.70
2018-03-14T21:05:44.196Z,30.83
2018-03-14T21:08:11.687Z,18.47
2018-03-14T21:10:39.954Z,22.67
2018-03-14T21:13:08.771Z,17.83
2018-03-14T21:15:36.979Z,27.07
2018-03-14T21:18:05.636Z,18.77
2018-03-14T21:20:33.098Z,23.70
2018-03-14T21:23:01.730Z,22.77
2018-03-14T21:25:30.771Z,25.13
2018-03-14T21:27:59.597Z,20.33
2018-03-14T21:30:27.067Z,26.73
2018-03-14T21:32:54.518Z,23.77
2018-03-14T21:35:22.376Z,26.63
2018-03-14T21:37:49.855Z,21.33
2018-03-14T21:40:18.472Z,24.77
2018-03-14T21:42:46.316Z,28.90
2018-03-14T21:45:14.163Z,27.47
2018-03-14T21:47:41.605Z,26.13
2018-03-14T21:50:09.798Z,30.77
2018-03-14T21:52:37.273Z,31.60
2018-03-14T21:55:06.066Z,34.20
2018-03-14T21:57:34.862Z,31.17
2018-03-14T22:00:02.303Z,29.30
2018-03-14T22:02:31.271Z,28.23
2018-03-14T22:04:58.779Z,30.70
2018-03-14T22:07:26.574Z,29.67
2018-03-14T22:09:54.012Z,27.43
2018-03-14T22:12:22.827Z,31.83
2018-03-14T22:14:50.294Z,27.13
2018-03-14T22:17:18.157Z,30.93
2018-03-14T22:19:46.367Z,30.53
2018-03-14T22:22:14.261Z,23.80
2018-03-14T22:24:42.085Z,25.23
2018-03-14T22:27:10.308Z,27.73
2018-03-14T22:29:37.761Z,27.07
2018-03-14T22:32:05.207Z,25.67
2018-03-14T22:34:33.427Z,29.30
2018-03-14T22:37:02.038Z,28.63
2018-03-14T22:39:29.490Z,28.80
2018-03-14T22:41:56.931Z,28.37
2018-03-14T22:44:25.144Z,26.30
2018-03-14T22:46:53.384Z,24.77
2018-03-14T22:49:20.812Z,32.27
2018-03-14T22:51:48.235Z,27.90
2018-03-14T22:54:16.454Z,27.53
2018-03-14T22:56:44.654Z,27.17
2018-03-14T22:59:12.113Z,27.20
2018-03-14T23:01:39.599Z,33.97
2018-03-14T23:04:07.824Z,30.40
2018-03-14T23:09:11.287Z,28.10
2018-03-14T23:11:38.764Z,23.37
2018-03-14T23:14:06.231Z,29.17
2018-03-14T23:16:33.680Z,29.43
2018-03-14T23:19:01.912Z,26.77
2018-03-14T23:21:30.127Z,27.97
2018-03-14T23:23:57.714Z,29.77
2018-03-14T23:26:25.169Z,30.20
2018-03-14T23:28:52.627Z,34.03
2018-03-14T23:31:20.461Z,31.73
2018-03-14T23:33:47.916Z,33.93
2018-03-14T23:36:15.772Z,29.43
2018-03-14T23:38:43.992Z,27.93
2018-03-14T23:41:11.441Z,33.33
2018-03-14T23:43:38.886Z,27.40
2018-03-14T23:46:07.094Z,25.80
2018-03-14T23:48:34.946Z,27.10
2018-03-14T23:51:03.737Z,32.57
2018-03-14T23:53:31.184Z,23.63
2018-03-14T23:55:58.634Z,25.57
2018-03-14T23:58:26.071Z,26.13
